Cedar Rapids, IA (52401)

2:07 PM CST on February 06, 2016 (GMT -0600)
Downtown Cedar Rapids - KCRG | | Change Station
CLOSE
Current Station
Personal Weather Station
Location: Cedar Rapids, IA
Elevation: 768 ft
Nearby Weather Stations

Elev 768 ft 41.98 °N, 91.66 °W | Updated 32 seconds ago

Overcast
Overcast
37.6 °F
Feels Like 38 °F
N
0.0
Wind Variable Wind from WSW
Gusts 0.0 mph

Today
High -- | Low -- °F
--% Chance of Precip.
Yesterday
High -- | Low -- °F
Precip. -- in
Pressure 30.17 in
Visibility 10.0 miles
Clouds Mostly Cloudy 1700 ft
Windchill 38 °F
Dew Point 32 °F
Humidity 79%
Rainfall 0.00 in
Snow Depth Not available.
7:14 AM 5:27 PM
Waning Crescent, 4% visible
METAR KCID 061952Z 23011KT 10SM BKN017 04/01 A3014 RMK AO2 SLP214 T00390006 $
Pressure 30.17 in
Visibility 10.0 miles
Clouds Mostly Cloudy 1700 ft
Windchill 38 °F
Dew Point 32 °F
Humidity 79%
Rainfall 0.00 in
Snow Depth Not available.
7:14 AM 5:27 PM
Waning Crescent, 4% visible
METAR KCID 061952Z 23011KT 10SM BKN017 04/01 A3014 RMK AO2 SLP214 T00390006 $

10-Day Weather Forecast

Almanac

Astronomy

Feb. 06, 2016 Rise Set
Actual Time
Civil Twilight
Nautical Twilight
Astronomical Twilight
Moon
Length of Visible Light
Length of Day
Tomorrow will be .
, % of the Moon is Illuminated

Today's Extremes

State Highs State Lows

Community

WunderPhotos

Upload Photos

1,891,043 photos uploaded!

WunderBlog® & News

Nearby

Air Quality

  Air Quality AQ Index Pollutant
Not available.

Snow Depth

Station Depth Elevation

Earthquake Activity

City Distance Mag. Time & Date
Minimum magnitude displayed is 2.5.

Coastal Water Temperatures

Place Temperature

Stations

Nearby Weather Stations

Station Location Temp. Windchill Dew Point Humidity Wind Precip. Elev Updated Type
                   

Watches & Warnings

There are currently no watches in effect.